logo
Rechercher aéroport 
image banner adimage banner adimage banner ad
image banner ad

2CN6 - Department Of Water&Power Los Angeles

Situé à Los Angeles, United States

ICAO - 2CN6, IATA -

Données fournies par Airmate  

Information générale

Coordonnées: N34°3'29" W118°14'58"
Élévation : 654 feet MSL.
 
Voir autres Aéroports à California

Données opérationnelles

Special qualification required
Heure actuelle UTC:
Heure actuelle locale:
METAR: KHHR 261553Z 00000KT 10SM CLR 24/18 A2993 RMK AO2 SLP132 T02390178 $
Voir NOTAMs / SUP AIP / TFR affectant cet aéroport [VIEW]
Fréquences de communication: [VIEW]

Pistes:

Coordonnées de l'aéroport

Adresse: Los Angeles United States

Vue satellite de 2CN6